sensor_id;sensor_type;location;lat;lon;timestamp;P1;durP1;ratioP1;P2;durP2;ratioP2
55224;SDS011;41091;49.400;8.684;2023-10-19T00:00:38;19.90;;;9.50;;
55224;SDS011;41091;49.400;8.684;2023-10-19T00:03:05;11.13;;;9.05;;
55224;SDS011;41091;49.400;8.684;2023-10-19T00:05:34;8.85;;;8.00;;
55224;SDS011;41091;49.400;8.684;2023-10-19T00:08:00;10.50;;;9.38;;
55224;SDS011;41091;49.400;8.684;2023-10-19T00:10:31;13.63;;;9.05;;
55224;SDS011;41091;49.400;8.684;2023-10-19T00:13:02;15.30;;;9.63;;
55224;SDS011;41091;49.400;8.684;2023-10-19T00:15:32;15.63;;;9.85;;
55224;SDS011;41091;49.400;8.684;2023-10-19T00:17:59;14.25;;;9.30;;
55224;SDS011;41091;49.400;8.684;2023-10-19T00:20:34;11.02;;;7.90;;
55224;SDS011;41091;49.400;8.684;2023-10-19T00:23:14;11.52;;;8.52;;
55224;SDS011;41091;49.400;8.684;2023-10-19T00:25:43;12.47;;;8.90;;
55224;SDS011;41091;49.400;8.684;2023-10-19T00:28:09;10.77;;;8.75;;
55224;SDS011;41091;49.400;8.684;2023-10-19T00:30:38;8.60;;;7.70;;
55224;SDS011;41091;49.400;8.684;2023-10-19T00:33:04;14.25;;;9.20;;
55224;SDS011;41091;49.400;8.684;2023-10-19T00:35:41;12.13;;;8.30;;
55224;SDS011;41091;49.400;8.684;2023-10-19T00:38:13;10.15;;;7.93;;
55224;SDS011;41091;49.400;8.684;2023-10-19T00:40:57;10.65;;;7.55;;
55224;SDS011;41091;49.400;8.684;2023-10-19T00:43:37;10.07;;;7.05;;
55224;SDS011;41091;49.400;8.684;2023-10-19T00:46:13;10.15;;;7.70;;
55224;SDS011;41091;49.400;8.684;2023-10-19T00:48:45;8.48;;;7.45;;
55224;SDS011;41091;49.400;8.684;2023-10-19T00:51:14;11.07;;;7.75;;
55224;SDS011;41091;49.400;8.684;2023-10-19T00:53:55;8.10;;;7.25;;
55224;SDS011;41091;49.400;8.684;2023-10-19T00:56:23;8.68;;;6.65;;
55224;SDS011;41091;49.400;8.684;2023-10-19T00:58:54;7.10;;;6.10;;
55224;SDS011;41091;49.400;8.684;2023-10-19T01:01:25;6.53;;;5.93;;
55224;SDS011;41091;49.400;8.684;2023-10-19T01:03:53;8.98;;;5.38;;
55224;SDS011;41091;49.400;8.684;2023-10-19T01:06:24;16.10;;;6.22;;
55224;SDS011;41091;49.400;8.684;2023-10-19T01:08:56;8.57;;;5.22;;
55224;SDS011;41091;49.400;8.684;2023-10-19T01:11:26;9.55;;;5.75;;
55224;SDS011;41091;49.400;8.684;2023-10-19T01:13:53;8.77;;;6.38;;
55224;SDS011;41091;49.400;8.684;2023-10-19T01:16:23;8.75;;;6.25;;
55224;SDS011;41091;49.400;8.684;2023-10-19T01:18:49;8.95;;;6.32;;
55224;SDS011;41091;49.400;8.684;2023-10-19T01:21:24;7.78;;;6.38;;
55224;SDS011;41091;49.400;8.684;2023-10-19T01:24:06;6.40;;;5.63;;
55224;SDS011;41091;49.400;8.684;2023-10-19T01:26:41;7.15;;;6.15;;
55224;SDS011;41091;49.400;8.684;2023-10-19T01:29:09;6.88;;;5.93;;
55224;SDS011;41091;49.400;8.684;2023-10-19T01:31:39;9.65;;;6.05;;
55224;SDS011;41091;49.400;8.684;2023-10-19T01:34:17;7.88;;;6.15;;
55224;SDS011;41091;49.400;8.684;2023-10-19T01:36:45;6.93;;;6.13;;
55224;SDS011;41091;49.400;8.684;2023-10-19T01:39:15;6.85;;;6.25;;
55224;SDS011;41091;49.400;8.684;2023-10-19T01:41:43;7.60;;;6.05;;
55224;SDS011;41091;49.400;8.684;2023-10-19T01:44:09;6.82;;;6.13;;
55224;SDS011;41091;49.400;8.684;2023-10-19T01:46:38;7.47;;;5.57;;
55224;SDS011;41091;49.400;8.684;2023-10-19T01:49:11;6.85;;;6.25;;
55224;SDS011;41091;49.400;8.684;2023-10-19T01:51:36;6.32;;;5.82;;
55224;SDS011;41091;49.400;8.684;2023-10-19T01:54:08;6.90;;;6.20;;
55224;SDS011;41091;49.400;8.684;2023-10-19T01:56:34;6.95;;;6.25;;
55224;SDS011;41091;49.400;8.684;2023-10-19T01:59:01;8.32;;;5.88;;
55224;SDS011;41091;49.400;8.684;2023-10-19T02:01:29;7.18;;;6.63;;
55224;SDS011;41091;49.400;8.684;2023-10-19T02:03:55;7.35;;;6.60;;
55224;SDS011;41091;49.400;8.684;2023-10-19T02:06:24;8.02;;;6.53;;
55224;SDS011;41091;49.400;8.684;2023-10-19T02:09:02;9.00;;;6.63;;
55224;SDS011;41091;49.400;8.684;2023-10-19T02:11:43;8.10;;;6.47;;
55224;SDS011;41091;49.400;8.684;2023-10-19T02:14:18;7.25;;;6.07;;
55224;SDS011;41091;49.400;8.684;2023-10-19T02:16:47;9.00;;;6.07;;
55224;SDS011;41091;49.400;8.684;2023-10-19T02:19:16;7.70;;;6.93;;
55224;SDS011;41091;49.400;8.684;2023-10-19T02:21:41;6.63;;;6.03;;
55224;SDS011;41091;49.400;8.684;2023-10-19T02:24:08;9.50;;;6.38;;
55224;SDS011;41091;49.400;8.684;2023-10-19T02:26:34;8.98;;;6.50;;
55224;SDS011;41091;49.400;8.684;2023-10-19T02:29:05;9.73;;;6.40;;
55224;SDS011;41091;49.400;8.684;2023-10-19T02:31:33;10.48;;;6.55;;
55224;SDS011;41091;49.400;8.684;2023-10-19T02:33:59;7.18;;;6.30;;
55224;SDS011;41091;49.400;8.684;2023-10-19T02:36:25;8.05;;;6.60;;
55224;SDS011;41091;49.400;8.684;2023-10-19T02:38:56;7.30;;;6.38;;
55224;SDS011;41091;49.400;8.684;2023-10-19T02:41:27;7.63;;;6.00;;
55224;SDS011;41091;49.400;8.684;2023-10-19T02:43:55;7.40;;;5.88;;
55224;SDS011;41091;49.400;8.684;2023-10-19T02:46:45;7.78;;;7.07;;
55224;SDS011;41091;49.400;8.684;2023-10-19T02:49:11;7.75;;;6.15;;
55224;SDS011;41091;49.400;8.684;2023-10-19T02:51:47;8.32;;;6.80;;
55224;SDS011;41091;49.400;8.684;2023-10-19T02:54:13;8.00;;;7.13;;
55224;SDS011;41091;49.400;8.684;2023-10-19T02:56:49;6.90;;;5.88;;
55224;SDS011;41091;49.400;8.684;2023-10-19T02:59:17;6.97;;;5.63;;
55224;SDS011;41091;49.400;8.684;2023-10-19T03:04:15;6.70;;;5.35;;
55224;SDS011;41091;49.400;8.684;2023-10-19T03:06:40;7.60;;;6.53;;
55224;SDS011;41091;49.400;8.684;2023-10-19T03:09:06;9.07;;;6.70;;
55224;SDS011;41091;49.400;8.684;2023-10-19T03:11:53;7.20;;;5.28;;
55224;SDS011;41091;49.400;8.684;2023-10-19T03:14:20;7.63;;;6.13;;
55224;SDS011;41091;49.400;8.684;2023-10-19T03:16:50;6.73;;;5.97;;
55224;SDS011;41091;49.400;8.684;2023-10-19T03:19:15;12.80;;;6.85;;
55224;SDS011;41091;49.400;8.684;2023-10-19T03:21:40;10.55;;;8.10;;
55224;SDS011;41091;49.400;8.684;2023-10-19T03:24:18;8.27;;;7.05;;
55224;SDS011;41091;49.400;8.684;2023-10-19T03:27:07;14.90;;;9.57;;
55224;SDS011;41091;49.400;8.684;2023-10-19T03:29:51;7.78;;;6.97;;
55224;SDS011;41091;49.400;8.684;2023-10-19T03:32:20;9.07;;;7.05;;
55224;SDS011;41091;49.400;8.684;2023-10-19T03:34:52;10.70;;;7.75;;
55224;SDS011;41091;49.400;8.684;2023-10-19T03:37:21;12.75;;;7.43;;
55224;SDS011;41091;49.400;8.684;2023-10-19T03:39:48;9.27;;;6.72;;
55224;SDS011;41091;49.400;8.684;2023-10-19T03:42:16;10.60;;;7.05;;
55224;SDS011;41091;49.400;8.684;2023-10-19T03:44:46;8.60;;;6.20;;
55224;SDS011;41091;49.400;8.684;2023-10-19T03:47:14;8.02;;;6.13;;
55224;SDS011;41091;49.400;8.684;2023-10-19T03:49:44;6.85;;;5.95;;
55224;SDS011;41091;49.400;8.684;2023-10-19T03:52:11;9.45;;;5.80;;
55224;SDS011;41091;49.400;8.684;2023-10-19T03:54:37;11.05;;;5.50;;
55224;SDS011;41091;49.400;8.684;2023-10-19T03:57:05;6.18;;;5.35;;
55224;SDS011;41091;49.400;8.684;2023-10-19T03:59:35;6.13;;;5.55;;
55224;SDS011;41091;49.400;8.684;2023-10-19T04:02:03;10.10;;;5.78;;
55224;SDS011;41091;49.400;8.684;2023-10-19T04:04:38;11.60;;;4.97;;
55224;SDS011;41091;49.400;8.684;2023-10-19T04:07:11;6.47;;;5.38;;
55224;SDS011;41091;49.400;8.684;2023-10-19T04:09:45;8.57;;;4.82;;
55224;SDS011;41091;49.400;8.684;2023-10-19T04:12:29;6.15;;;5.00;;
55224;SDS011;41091;49.400;8.684;2023-10-19T04:14:56;5.05;;;4.20;;
55224;SDS011;41091;49.400;8.684;2023-10-19T04:17:21;5.22;;;4.45;;
55224;SDS011;41091;49.400;8.684;2023-10-19T04:19:49;4.63;;;3.53;;
55224;SDS011;41091;49.400;8.684;2023-10-19T04:22:18;4.85;;;4.00;;
55224;SDS011;41091;49.400;8.684;2023-10-19T04:24:52;4.38;;;3.83;;
55224;SDS011;41091;49.400;8.684;2023-10-19T04:27:18;4.50;;;3.22;;
55224;SDS011;41091;49.400;8.684;2023-10-19T04:29:50;3.53;;;2.85;;
55224;SDS011;41091;49.400;8.684;2023-10-19T04:32:16;2.92;;;2.67;;
55224;SDS011;41091;49.400;8.684;2023-10-19T04:34:50;4.28;;;2.65;;
55224;SDS011;41091;49.400;8.684;2023-10-19T04:37:16;3.95;;;3.00;;
55224;SDS011;41091;49.400;8.684;2023-10-19T04:39:44;3.10;;;2.90;;
55224;SDS011;41091;49.400;8.684;2023-10-19T04:42:11;6.53;;;3.25;;
55224;SDS011;41091;49.400;8.684;2023-10-19T04:44:37;3.65;;;3.35;;
55224;SDS011;41091;49.400;8.684;2023-10-19T04:47:02;4.47;;;3.55;;
55224;SDS011;41091;49.400;8.684;2023-10-19T04:49:28;3.15;;;2.92;;
55224;SDS011;41091;49.400;8.684;2023-10-19T04:51:53;3.63;;;3.33;;
55224;SDS011;41091;49.400;8.684;2023-10-19T04:54:23;3.20;;;2.90;;
55224;SDS011;41091;49.400;8.684;2023-10-19T04:56:49;3.72;;;3.22;;
55224;SDS011;41091;49.400;8.684;2023-10-19T04:59:17;4.25;;;3.95;;
55224;SDS011;41091;49.400;8.684;2023-10-19T05:01:45;3.15;;;2.95;;
55224;SDS011;41091;49.400;8.684;2023-10-19T05:04:10;3.85;;;3.53;;
55224;SDS011;41091;49.400;8.684;2023-10-19T05:06:37;4.63;;;3.83;;
55224;SDS011;41091;49.400;8.684;2023-10-19T05:09:05;4.18;;;3.88;;
55224;SDS011;41091;49.400;8.684;2023-10-19T05:11:31;6.05;;;4.57;;
55224;SDS011;41091;49.400;8.684;2023-10-19T05:13:56;4.70;;;3.88;;
55224;SDS011;41091;49.400;8.684;2023-10-19T05:16:21;7.00;;;3.75;;
55224;SDS011;41091;49.400;8.684;2023-10-19T05:18:47;5.95;;;4.20;;
55224;SDS011;41091;49.400;8.684;2023-10-19T05:21:12;8.60;;;5.50;;
55224;SDS011;41091;49.400;8.684;2023-10-19T05:23:37;4.65;;;3.72;;
55224;SDS011;41091;49.400;8.684;2023-10-19T05:26:03;5.53;;;3.95;;
55224;SDS011;41091;49.400;8.684;2023-10-19T05:28:29;11.88;;;4.75;;
55224;SDS011;41091;49.400;8.684;2023-10-19T05:30:57;5.15;;;4.20;;
55224;SDS011;41091;49.400;8.684;2023-10-19T05:33:24;6.53;;;4.45;;
55224;SDS011;41091;49.400;8.684;2023-10-19T05:35:51;7.93;;;4.90;;
55224;SDS011;41091;49.400;8.684;2023-10-19T05:38:19;8.43;;;5.32;;
55224;SDS011;41091;49.400;8.684;2023-10-19T05:40:46;12.13;;;5.28;;
55224;SDS011;41091;49.400;8.684;2023-10-19T05:43:12;5.28;;;4.80;;
55224;SDS011;41091;49.400;8.684;2023-10-19T05:45:38;7.38;;;5.07;;
55224;SDS011;41091;49.400;8.684;2023-10-19T05:48:06;6.45;;;5.38;;
55224;SDS011;41091;49.400;8.684;2023-10-19T05:50:34;7.75;;;5.40;;
55224;SDS011;41091;49.400;8.684;2023-10-19T05:53:00;6.18;;;5.57;;
55224;SDS011;41091;49.400;8.684;2023-10-19T05:55:28;6.35;;;5.78;;
55224;SDS011;41091;49.400;8.684;2023-10-19T05:57:54;7.22;;;5.45;;
55224;SDS011;41091;49.400;8.684;2023-10-19T06:00:19;8.85;;;4.97;;
55224;SDS011;41091;49.400;8.684;2023-10-19T06:02:50;7.22;;;5.70;;
55224;SDS011;41091;49.400;8.684;2023-10-19T06:05:16;9.88;;;5.45;;
55224;SDS011;41091;49.400;8.684;2023-10-19T06:07:43;7.55;;;5.93;;
55224;SDS011;41091;49.400;8.684;2023-10-19T06:10:15;19.00;;;10.45;;
55224;SDS011;41091;49.400;8.684;2023-10-19T06:12:43;34.47;;;20.27;;
55224;SDS011;41091;49.400;8.684;2023-10-19T06:15:10;8.93;;;6.50;;
55224;SDS011;41091;49.400;8.684;2023-10-19T06:17:36;9.70;;;6.80;;
55224;SDS011;41091;49.400;8.684;2023-10-19T06:20:03;5.88;;;5.05;;
55224;SDS011;41091;49.400;8.684;2023-10-19T06:22:29;7.30;;;5.55;;
55224;SDS011;41091;49.400;8.684;2023-10-19T06:24:55;7.60;;;5.53;;
55224;SDS011;41091;49.400;8.684;2023-10-19T06:27:23;5.43;;;4.93;;
55224;SDS011;41091;49.400;8.684;2023-10-19T06:29:50;6.13;;;5.18;;
55224;SDS011;41091;49.400;8.684;2023-10-19T06:32:16;6.53;;;5.03;;
55224;SDS011;41091;49.400;8.684;2023-10-19T06:34:42;6.95;;;5.68;;
55224;SDS011;41091;49.400;8.684;2023-10-19T06:37:07;21.13;;;11.90;;
55224;SDS011;41091;49.400;8.684;2023-10-19T06:39:36;19.63;;;11.00;;
55224;SDS011;41091;49.400;8.684;2023-10-19T06:42:05;8.87;;;5.43;;
55224;SDS011;41091;49.400;8.684;2023-10-19T06:44:34;8.25;;;5.10;;
55224;SDS011;41091;49.400;8.684;2023-10-19T06:47:02;6.38;;;4.35;;
55224;SDS011;41091;49.400;8.684;2023-10-19T06:49:29;6.70;;;5.72;;
55224;SDS011;41091;49.400;8.684;2023-10-19T06:51:54;6.50;;;4.88;;
55224;SDS011;41091;49.400;8.684;2023-10-19T06:54:21;8.60;;;5.53;;
55224;SDS011;41091;49.400;8.684;2023-10-19T06:56:46;5.85;;;5.07;;
55224;SDS011;41091;49.400;8.684;2023-10-19T06:59:12;6.25;;;5.43;;
55224;SDS011;41091;49.400;8.684;2023-10-19T07:01:38;9.50;;;5.00;;
55224;SDS011;41091;49.400;8.684;2023-10-19T07:04:05;12.68;;;5.50;;
55224;SDS011;41091;49.400;8.684;2023-10-19T07:06:33;5.70;;;4.75;;
55224;SDS011;41091;49.400;8.684;2023-10-19T07:08:58;8.18;;;4.95;;
55224;SDS011;41091;49.400;8.684;2023-10-19T07:11:24;9.00;;;5.35;;
55224;SDS011;41091;49.400;8.684;2023-10-19T07:13:49;6.30;;;5.35;;
55224;SDS011;41091;49.400;8.684;2023-10-19T07:16:17;7.25;;;5.18;;
55224;SDS011;41091;49.400;8.684;2023-10-19T07:18:45;7.88;;;4.38;;
55224;SDS011;41091;49.400;8.684;2023-10-19T07:21:10;11.95;;;4.88;;
55224;SDS011;41091;49.400;8.684;2023-10-19T07:23:36;6.47;;;5.85;;
55224;SDS011;41091;49.400;8.684;2023-10-19T07:26:05;6.07;;;4.57;;
55224;SDS011;41091;49.400;8.684;2023-10-19T07:28:33;6.25;;;5.22;;
55224;SDS011;41091;49.400;8.684;2023-10-19T07:30:59;8.45;;;6.13;;
55224;SDS011;41091;49.400;8.684;2023-10-19T07:33:25;20.35;;;6.90;;
55224;SDS011;41091;49.400;8.684;2023-10-19T07:35:51;5.60;;;5.10;;
55224;SDS011;41091;49.400;8.684;2023-10-19T07:38:23;11.05;;;6.53;;
55224;SDS011;41091;49.400;8.684;2023-10-19T07:40:53;7.15;;;6.45;;
55224;SDS011;41091;49.400;8.684;2023-10-19T07:43:19;10.73;;;6.22;;
55224;SDS011;41091;49.400;8.684;2023-10-19T07:45:48;10.27;;;5.95;;
55224;SDS011;41091;49.400;8.684;2023-10-19T07:48:13;6.00;;;5.18;;
55224;SDS011;41091;49.400;8.684;2023-10-19T07:50:39;14.80;;;7.65;;
55224;SDS011;41091;49.400;8.684;2023-10-19T07:53:05;8.95;;;4.78;;
55224;SDS011;41091;49.400;8.684;2023-10-19T07:55:31;12.13;;;5.38;;
55224;SDS011;41091;49.400;8.684;2023-10-19T07:57:57;9.75;;;4.63;;
55224;SDS011;41091;49.400;8.684;2023-10-19T08:00:27;6.05;;;4.05;;
55224;SDS011;41091;49.400;8.684;2023-10-19T08:02:55;6.63;;;4.50;;
55224;SDS011;41091;49.400;8.684;2023-10-19T08:05:20;4.38;;;3.78;;
55224;SDS011;41091;49.400;8.684;2023-10-19T08:07:51;12.07;;;4.03;;
55224;SDS011;41091;49.400;8.684;2023-10-19T08:10:19;4.90;;;4.40;;
55224;SDS011;41091;49.400;8.684;2023-10-19T08:12:48;6.15;;;4.13;;
55224;SDS011;41091;49.400;8.684;2023-10-19T08:15:14;4.65;;;3.90;;
55224;SDS011;41091;49.400;8.684;2023-10-19T08:17:41;11.23;;;4.15;;
55224;SDS011;41091;49.400;8.684;2023-10-19T08:20:08;7.90;;;3.60;;
55224;SDS011;41091;49.400;8.684;2023-10-19T08:22:41;8.27;;;4.70;;
55224;SDS011;41091;49.400;8.684;2023-10-19T08:25:14;7.28;;;4.68;;
55224;SDS011;41091;49.400;8.684;2023-10-19T08:27:40;6.68;;;3.78;;
55224;SDS011;41091;49.400;8.684;2023-10-19T08:30:09;8.15;;;3.83;;
55224;SDS011;41091;49.400;8.684;2023-10-19T08:32:37;3.42;;;3.13;;
55224;SDS011;41091;49.400;8.684;2023-10-19T08:35:04;7.18;;;4.03;;
55224;SDS011;41091;49.400;8.684;2023-10-19T08:37:32;9.52;;;3.75;;
55224;SDS011;41091;49.400;8.684;2023-10-19T08:39:57;5.60;;;3.88;;
55224;SDS011;41091;49.400;8.684;2023-10-19T08:42:25;4.63;;;3.65;;
55224;SDS011;41091;49.400;8.684;2023-10-19T08:44:55;4.20;;;3.47;;
55224;SDS011;41091;49.400;8.684;2023-10-19T08:47:20;4.30;;;3.33;;
55224;SDS011;41091;49.400;8.684;2023-10-19T08:49:50;4.32;;;3.35;;
55224;SDS011;41091;49.400;8.684;2023-10-19T08:52:20;3.97;;;3.17;;
55224;SDS011;41091;49.400;8.684;2023-10-19T08:54:48;11.50;;;3.78;;
55224;SDS011;41091;49.400;8.684;2023-10-19T08:57:14;5.25;;;3.40;;
55224;SDS011;41091;49.400;8.684;2023-10-19T08:59:39;6.40;;;3.92;;
55224;SDS011;41091;49.400;8.684;2023-10-19T09:02:05;5.25;;;2.90;;
55224;SDS011;41091;49.400;8.684;2023-10-19T09:04:32;6.55;;;3.30;;
55224;SDS011;41091;49.400;8.684;2023-10-19T09:06:57;8.25;;;3.28;;
55224;SDS011;41091;49.400;8.684;2023-10-19T09:09:23;6.18;;;3.40;;
55224;SDS011;41091;49.400;8.684;2023-10-19T09:11:51;6.57;;;2.95;;
55224;SDS011;41091;49.400;8.684;2023-10-19T09:14:32;7.13;;;4.40;;
55224;SDS011;41091;49.400;8.684;2023-10-19T09:16:59;6.72;;;3.78;;
55224;SDS011;41091;49.400;8.684;2023-10-19T09:22:21;4.82;;;4.20;;
55224;SDS011;41091;49.400;8.684;2023-10-19T09:24:50;4.68;;;3.88;;
55224;SDS011;41091;49.400;8.684;2023-10-19T09:27:18;4.78;;;3.75;;
55224;SDS011;41091;49.400;8.684;2023-10-19T09:29:44;6.65;;;3.80;;
55224;SDS011;41091;49.400;8.684;2023-10-19T09:32:10;8.38;;;3.80;;
55224;SDS011;41091;49.400;8.684;2023-10-19T09:34:38;4.80;;;3.42;;
55224;SDS011;41091;49.400;8.684;2023-10-19T09:37:08;4.30;;;3.17;;
55224;SDS011;41091;49.400;8.684;2023-10-19T09:39:34;3.28;;;3.08;;
55224;SDS011;41091;49.400;8.684;2023-10-19T09:42:02;3.22;;;2.95;;
55224;SDS011;41091;49.400;8.684;2023-10-19T09:44:41;6.88;;;4.30;;
55224;SDS011;41091;49.400;8.684;2023-10-19T09:47:22;5.35;;;3.53;;
55224;SDS011;41091;49.400;8.684;2023-10-19T09:49:55;10.98;;;3.08;;
55224;SDS011;41091;49.400;8.684;2023-10-19T09:52:24;7.28;;;2.63;;
55224;SDS011;41091;49.400;8.684;2023-10-19T09:54:56;5.35;;;3.17;;
55224;SDS011;41091;49.400;8.684;2023-10-19T09:57:29;5.10;;;3.05;;
55224;SDS011;41091;49.400;8.684;2023-10-19T10:00:00;3.47;;;3.08;;
55224;SDS011;41091;49.400;8.684;2023-10-19T10:02:38;2.15;;;1.55;;
55224;SDS011;41091;49.400;8.684;2023-10-19T10:05:06;2.60;;;2.05;;
55224;SDS011;41091;49.400;8.684;2023-10-19T10:10:48;5.68;;;2.55;;
55224;SDS011;41091;49.400;8.684;2023-10-19T10:15:55;2.85;;;1.98;;
55224;SDS011;41091;49.400;8.684;2023-10-19T10:18:24;2.75;;;2.53;;
55224;SDS011;41091;49.400;8.684;2023-10-19T10:23:34;4.05;;;2.17;;
55224;SDS011;41091;49.400;8.684;2023-10-19T10:26:05;6.30;;;1.83;;
55224;SDS011;41091;49.400;8.684;2023-10-19T10:28:36;3.90;;;1.95;;
55224;SDS011;41091;49.400;8.684;2023-10-19T10:31:14;6.53;;;2.40;;
55224;SDS011;41091;49.400;8.684;2023-10-19T10:33:47;4.93;;;1.60;;
55224;SDS011;41091;49.400;8.684;2023-10-19T10:36:17;2.45;;;1.83;;
55224;SDS011;41091;49.400;8.684;2023-10-19T10:38:44;6.90;;;2.15;;
55224;SDS011;41091;49.400;8.684;2023-10-19T10:41:10;5.72;;;2.20;;
55224;SDS011;41091;49.400;8.684;2023-10-19T10:43:51;2.78;;;1.90;;
55224;SDS011;41091;49.400;8.684;2023-10-19T10:46:18;3.45;;;1.48;;
55224;SDS011;41091;49.400;8.684;2023-10-19T10:48:56;3.90;;;1.40;;
55224;SDS011;41091;49.400;8.684;2023-10-19T10:53:58;3.15;;;1.67;;
55224;SDS011;41091;49.400;8.684;2023-10-19T10:56:24;2.63;;;1.98;;
55224;SDS011;41091;49.400;8.684;2023-10-19T10:58:51;5.13;;;1.98;;
55224;SDS011;41091;49.400;8.684;2023-10-19T11:01:32;15.63;;;2.55;;
55224;SDS011;41091;49.400;8.684;2023-10-19T11:04:07;2.08;;;1.75;;
55224;SDS011;41091;49.400;8.684;2023-10-19T11:06:49;2.40;;;1.73;;
55224;SDS011;41091;49.400;8.684;2023-10-19T11:09:15;1.92;;;1.10;;
55224;SDS011;41091;49.400;8.684;2023-10-19T11:11:46;1.90;;;1.48;;
55224;SDS011;41091;49.400;8.684;2023-10-19T11:14:12;1.02;;;1.00;;
55224;SDS011;41091;49.400;8.684;2023-10-19T11:16:37;2.35;;;1.58;;
55224;SDS011;41091;49.400;8.684;2023-10-19T11:19:06;4.38;;;1.75;;
55224;SDS011;41091;49.400;8.684;2023-10-19T11:21:35;3.00;;;1.35;;
55224;SDS011;41091;49.400;8.684;2023-10-19T11:24:01;1.50;;;1.40;;
55224;SDS011;41091;49.400;8.684;2023-10-19T11:26:27;3.65;;;1.52;;
55224;SDS011;41091;49.400;8.684;2023-10-19T11:29:02;2.72;;;1.83;;
55224;SDS011;41091;49.400;8.684;2023-10-19T11:31:30;2.05;;;1.60;;
55224;SDS011;41091;49.400;8.684;2023-10-19T11:34:04;8.75;;;1.50;;
55224;SDS011;41091;49.400;8.684;2023-10-19T11:36:33;3.63;;;1.77;;
55224;SDS011;41091;49.400;8.684;2023-10-19T11:38:59;3.03;;;1.40;;
55224;SDS011;41091;49.400;8.684;2023-10-19T11:43:55;2.13;;;1.98;;
55224;SDS011;41091;49.400;8.684;2023-10-19T11:46:23;6.82;;;1.73;;
55224;SDS011;41091;49.400;8.684;2023-10-19T11:48:50;3.53;;;2.25;;
55224;SDS011;41091;49.400;8.684;2023-10-19T11:51:18;6.40;;;3.17;;
55224;SDS011;41091;49.400;8.684;2023-10-19T11:53:44;4.35;;;2.30;;
55224;SDS011;41091;49.400;8.684;2023-10-19T11:56:11;3.03;;;2.17;;
55224;SDS011;41091;49.400;8.684;2023-10-19T11:58:38;6.45;;;2.00;;
55224;SDS011;41091;49.400;8.684;2023-10-19T12:01:05;5.38;;;2.20;;
55224;SDS011;41091;49.400;8.684;2023-10-19T12:03:36;3.83;;;2.35;;
55224;SDS011;41091;49.400;8.684;2023-10-19T12:06:03;3.10;;;1.98;;
55224;SDS011;41091;49.400;8.684;2023-10-19T12:08:31;3.03;;;1.97;;
55224;SDS011;41091;49.400;8.684;2023-10-19T12:10:57;6.78;;;2.42;;
55224;SDS011;41091;49.400;8.684;2023-10-19T12:13:22;4.53;;;2.08;;
55224;SDS011;41091;49.400;8.684;2023-10-19T12:15:51;2.03;;;1.75;;
55224;SDS011;41091;49.400;8.684;2023-10-19T12:18:17;4.45;;;2.83;;
55224;SDS011;41091;49.400;8.684;2023-10-19T12:20:44;3.60;;;2.28;;
55224;SDS011;41091;49.400;8.684;2023-10-19T12:23:12;3.22;;;2.45;;
55224;SDS011;41091;49.400;8.684;2023-10-19T12:25:38;2.60;;;2.33;;
55224;SDS011;41091;49.400;8.684;2023-10-19T12:28:03;2.50;;;2.30;;
55224;SDS011;41091;49.400;8.684;2023-10-19T12:30:29;6.95;;;2.47;;
55224;SDS011;41091;49.400;8.684;2023-10-19T12:33:01;2.17;;;2.00;;
55224;SDS011;41091;49.400;8.684;2023-10-19T12:35:32;6.35;;;2.15;;
55224;SDS011;41091;49.400;8.684;2023-10-19T12:38:10;2.95;;;2.58;;
55224;SDS011;41091;49.400;8.684;2023-10-19T12:40:44;2.67;;;2.40;;
55224;SDS011;41091;49.400;8.684;2023-10-19T12:45:37;6.80;;;3.03;;
55224;SDS011;41091;49.400;8.684;2023-10-19T12:48:03;4.18;;;2.60;;
55224;SDS011;41091;49.400;8.684;2023-10-19T12:50:38;4.40;;;1.98;;
55224;SDS011;41091;49.400;8.684;2023-10-19T12:53:03;4.88;;;1.70;;
55224;SDS011;41091;49.400;8.684;2023-10-19T12:55:31;6.80;;;2.88;;
55224;SDS011;41091;49.400;8.684;2023-10-19T12:57:59;2.47;;;1.95;;
55224;SDS011;41091;49.400;8.684;2023-10-19T13:00:32;5.15;;;2.25;;
55224;SDS011;41091;49.400;8.684;2023-10-19T13:03:04;3.35;;;2.10;;
55224;SDS011;41091;49.400;8.684;2023-10-19T13:05:33;2.97;;;2.42;;
55224;SDS011;41091;49.400;8.684;2023-10-19T13:07:59;3.20;;;2.20;;
55224;SDS011;41091;49.400;8.684;2023-10-19T13:10:31;2.75;;;2.30;;
55224;SDS011;41091;49.400;8.684;2023-10-19T13:13:01;4.25;;;2.38;;
55224;SDS011;41091;49.400;8.684;2023-10-19T13:15:31;4.90;;;2.38;;
55224;SDS011;41091;49.400;8.684;2023-10-19T13:17:57;7.15;;;2.80;;
55224;SDS011;41091;49.400;8.684;2023-10-19T13:20:29;4.18;;;2.55;;
55224;SDS011;41091;49.400;8.684;2023-10-19T13:23:01;4.40;;;3.72;;
55224;SDS011;41091;49.400;8.684;2023-10-19T13:25:34;4.45;;;1.95;;
55224;SDS011;41091;49.400;8.684;2023-10-19T13:28:12;6.65;;;2.20;;
55224;SDS011;41091;49.400;8.684;2023-10-19T13:30:42;3.33;;;2.30;;
55224;SDS011;41091;49.400;8.684;2023-10-19T13:33:13;3.63;;;2.47;;
55224;SDS011;41091;49.400;8.684;2023-10-19T13:35:39;1.98;;;1.80;;
55224;SDS011;41091;49.400;8.684;2023-10-19T13:38:06;4.00;;;1.95;;
55224;SDS011;41091;49.400;8.684;2023-10-19T13:40:37;2.65;;;2.10;;
55224;SDS011;41091;49.400;8.684;2023-10-19T13:43:03;2.65;;;2.45;;
55224;SDS011;41091;49.400;8.684;2023-10-19T13:45:32;3.00;;;2.70;;
55224;SDS011;41091;49.400;8.684;2023-10-19T13:47:59;6.22;;;3.15;;
55224;SDS011;41091;49.400;8.684;2023-10-19T13:50:30;5.65;;;2.55;;
55224;SDS011;41091;49.400;8.684;2023-10-19T13:52:59;3.30;;;2.83;;
55224;SDS011;41091;49.400;8.684;2023-10-19T13:55:30;3.00;;;2.63;;
55224;SDS011;41091;49.400;8.684;2023-10-19T13:57:55;3.85;;;3.63;;
55224;SDS011;41091;49.400;8.684;2023-10-19T14:00:21;4.95;;;3.45;;
55224;SDS011;41091;49.400;8.684;2023-10-19T14:03:01;3.87;;;3.57;;
55224;SDS011;41091;49.400;8.684;2023-10-19T14:05:29;8.40;;;3.92;;
55224;SDS011;41091;49.400;8.684;2023-10-19T14:08:03;4.53;;;3.83;;
55224;SDS011;41091;49.400;8.684;2023-10-19T14:10:29;5.03;;;3.63;;
55224;SDS011;41091;49.400;8.684;2023-10-19T14:12:55;3.72;;;3.15;;
55224;SDS011;41091;49.400;8.684;2023-10-19T14:15:21;4.28;;;3.88;;
55224;SDS011;41091;49.400;8.684;2023-10-19T14:17:50;4.65;;;3.72;;
55224;SDS011;41091;49.400;8.684;2023-10-19T14:20:18;3.13;;;2.92;;
55224;SDS011;41091;49.400;8.684;2023-10-19T14:22:48;3.33;;;2.17;;
55224;SDS011;41091;49.400;8.684;2023-10-19T14:25:14;6.40;;;2.85;;
55224;SDS011;41091;49.400;8.684;2023-10-19T14:27:43;5.70;;;3.05;;
55224;SDS011;41091;49.400;8.684;2023-10-19T14:30:13;3.70;;;2.83;;
55224;SDS011;41091;49.400;8.684;2023-10-19T14:32:40;6.70;;;2.90;;
55224;SDS011;41091;49.400;8.684;2023-10-19T14:35:10;3.23;;;2.47;;
55224;SDS011;41091;49.400;8.684;2023-10-19T14:37:39;2.05;;;1.85;;
55224;SDS011;41091;49.400;8.684;2023-10-19T14:40:09;3.10;;;2.63;;
55224;SDS011;41091;49.400;8.684;2023-10-19T14:42:37;2.53;;;2.30;;
55224;SDS011;41091;49.400;8.684;2023-10-19T14:45:07;2.55;;;2.30;;
55224;SDS011;41091;49.400;8.684;2023-10-19T14:47:37;3.47;;;2.45;;
55224;SDS011;41091;49.400;8.684;2023-10-19T14:50:11;4.90;;;2.33;;
55224;SDS011;41091;49.400;8.684;2023-10-19T14:52:38;3.67;;;2.08;;
55224;SDS011;41091;49.400;8.684;2023-10-19T14:55:07;2.92;;;2.72;;
55224;SDS011;41091;49.400;8.684;2023-10-19T14:57:34;2.80;;;2.40;;
55224;SDS011;41091;49.400;8.684;2023-10-19T15:00:05;6.25;;;3.08;;
55224;SDS011;41091;49.400;8.684;2023-10-19T15:02:42;6.60;;;2.03;;
55224;SDS011;41091;49.400;8.684;2023-10-19T15:05:09;3.65;;;1.80;;
55224;SDS011;41091;49.400;8.684;2023-10-19T15:07:38;3.70;;;1.25;;
55224;SDS011;41091;49.400;8.684;2023-10-19T15:10:07;3.17;;;1.40;;
55224;SDS011;41091;49.400;8.684;2023-10-19T15:12:36;3.13;;;1.83;;
55224;SDS011;41091;49.400;8.684;2023-10-19T15:15:02;1.98;;;1.88;;
55224;SDS011;41091;49.400;8.684;2023-10-19T15:17:28;1.67;;;1.58;;